sensor_id;sensor_type;location;lat;lon;timestamp;P1;durP1;ratioP1;P2;durP2;ratioP2
18669;SDS011;9464;44.918;9.670;2023-02-18T00:01:36;4.77;;;3.60;;
18669;SDS011;9464;44.918;9.670;2023-02-18T00:04:05;4.93;;;3.33;;
18669;SDS011;9464;44.918;9.670;2023-02-18T00:06:34;4.60;;;3.63;;
18669;SDS011;9464;44.918;9.670;2023-02-18T00:09:04;5.13;;;3.40;;
18669;SDS011;9464;44.918;9.670;2023-02-18T00:11:35;3.67;;;3.20;;
18669;SDS011;9464;44.918;9.670;2023-02-18T00:14:05;4.17;;;3.43;;
18669;SDS011;9464;44.918;9.670;2023-02-18T00:16:35;3.70;;;3.20;;
18669;SDS011;9464;44.918;9.670;2023-02-18T00:19:04;5.50;;;3.33;;
18669;SDS011;9464;44.918;9.670;2023-02-18T00:21:34;4.50;;;3.67;;
18669;SDS011;9464;44.918;9.670;2023-02-18T00:24:03;4.63;;;3.33;;
18669;SDS011;9464;44.918;9.670;2023-02-18T00:26:32;6.07;;;3.63;;
18669;SDS011;9464;44.918;9.670;2023-02-18T00:29:01;5.23;;;3.13;;
18669;SDS011;9464;44.918;9.670;2023-02-18T00:31:30;4.20;;;3.50;;
18669;SDS011;9464;44.918;9.670;2023-02-18T00:34:01;4.20;;;3.20;;
18669;SDS011;9464;44.918;9.670;2023-02-18T00:36:29;3.90;;;3.50;;
18669;SDS011;9464;44.918;9.670;2023-02-18T00:38:59;6.03;;;3.50;;
18669;SDS011;9464;44.918;9.670;2023-02-18T00:41:29;5.30;;;3.47;;
18669;SDS011;9464;44.918;9.670;2023-02-18T00:43:58;4.63;;;3.53;;
18669;SDS011;9464;44.918;9.670;2023-02-18T00:46:26;4.50;;;3.43;;
18669;SDS011;9464;44.918;9.670;2023-02-18T00:48:55;4.50;;;3.47;;
18669;SDS011;9464;44.918;9.670;2023-02-18T00:51:25;4.87;;;3.50;;
18669;SDS011;9464;44.918;9.670;2023-02-18T00:53:54;4.93;;;3.10;;
18669;SDS011;9464;44.918;9.670;2023-02-18T00:56:22;3.47;;;2.87;;
18669;SDS011;9464;44.918;9.670;2023-02-18T00:58:50;3.10;;;2.80;;
18669;SDS011;9464;44.918;9.670;2023-02-18T01:01:19;4.67;;;3.10;;
18669;SDS011;9464;44.918;9.670;2023-02-18T01:03:48;4.87;;;3.23;;
18669;SDS011;9464;44.918;9.670;2023-02-18T01:06:17;6.10;;;3.40;;
18669;SDS011;9464;44.918;9.670;2023-02-18T01:08:48;4.60;;;3.27;;
18669;SDS011;9464;44.918;9.670;2023-02-18T01:11:17;3.77;;;2.93;;
18669;SDS011;9464;44.918;9.670;2023-02-18T01:13:45;3.57;;;2.93;;
18669;SDS011;9464;44.918;9.670;2023-02-18T01:16:15;4.87;;;3.57;;
18669;SDS011;9464;44.918;9.670;2023-02-18T01:18:44;3.73;;;3.00;;
18669;SDS011;9464;44.918;9.670;2023-02-18T01:21:12;5.87;;;3.53;;
18669;SDS011;9464;44.918;9.670;2023-02-18T01:23:41;7.87;;;3.27;;
18669;SDS011;9464;44.918;9.670;2023-02-18T01:26:11;3.53;;;3.07;;
18669;SDS011;9464;44.918;9.670;2023-02-18T01:28:39;6.37;;;4.10;;
18669;SDS011;9464;44.918;9.670;2023-02-18T01:31:09;5.60;;;3.50;;
18669;SDS011;9464;44.918;9.670;2023-02-18T01:33:38;3.20;;;2.90;;
18669;SDS011;9464;44.918;9.670;2023-02-18T01:36:06;5.23;;;3.37;;
18669;SDS011;9464;44.918;9.670;2023-02-18T01:38:36;5.00;;;3.57;;
18669;SDS011;9464;44.918;9.670;2023-02-18T01:41:04;4.33;;;3.20;;
18669;SDS011;9464;44.918;9.670;2023-02-18T01:43:34;4.30;;;3.10;;
18669;SDS011;9464;44.918;9.670;2023-02-18T01:46:05;7.47;;;3.40;;
18669;SDS011;9464;44.918;9.670;2023-02-18T01:48:35;4.00;;;2.70;;
18669;SDS011;9464;44.918;9.670;2023-02-18T01:51:06;4.97;;;3.10;;
18669;SDS011;9464;44.918;9.670;2023-02-18T01:53:37;4.73;;;3.10;;
18669;SDS011;9464;44.918;9.670;2023-02-18T01:56:07;4.77;;;2.83;;
18669;SDS011;9464;44.918;9.670;2023-02-18T01:58:39;3.67;;;3.20;;
18669;SDS011;9464;44.918;9.670;2023-02-18T02:01:07;4.13;;;3.00;;
18669;SDS011;9464;44.918;9.670;2023-02-18T02:03:36;4.83;;;3.13;;
18669;SDS011;9464;44.918;9.670;2023-02-18T02:06:08;4.67;;;2.93;;
18669;SDS011;9464;44.918;9.670;2023-02-18T02:08:39;4.53;;;3.30;;
18669;SDS011;9464;44.918;9.670;2023-02-18T02:11:11;5.23;;;3.00;;
18669;SDS011;9464;44.918;9.670;2023-02-18T02:13:51;4.80;;;3.77;;
18669;SDS011;9464;44.918;9.670;2023-02-18T02:16:25;3.70;;;2.93;;
18669;SDS011;9464;44.918;9.670;2023-02-18T02:19:00;4.20;;;2.90;;
18669;SDS011;9464;44.918;9.670;2023-02-18T02:21:45;5.60;;;3.30;;
18669;SDS011;9464;44.918;9.670;2023-02-18T02:24:25;3.83;;;3.00;;
18669;SDS011;9464;44.918;9.670;2023-02-18T02:26:59;5.93;;;4.23;;
18669;SDS011;9464;44.918;9.670;2023-02-18T02:29:58;11.93;;;6.70;;
18669;SDS011;9464;44.918;9.670;2023-02-18T02:32:32;12.67;;;7.90;;
18669;SDS011;9464;44.918;9.670;2023-02-18T02:35:05;11.83;;;7.20;;
18669;SDS011;9464;44.918;9.670;2023-02-18T02:37:37;11.40;;;8.53;;
18669;SDS011;9464;44.918;9.670;2023-02-18T02:40:12;13.00;;;8.63;;
18669;SDS011;9464;44.918;9.670;2023-02-18T02:42:45;13.33;;;9.80;;
18669;SDS011;9464;44.918;9.670;2023-02-18T02:45:16;15.30;;;10.10;;
18669;SDS011;9464;44.918;9.670;2023-02-18T02:47:48;13.77;;;10.60;;
18669;SDS011;9464;44.918;9.670;2023-02-18T02:50:21;16.77;;;10.93;;
18669;SDS011;9464;44.918;9.670;2023-02-18T02:52:56;20.53;;;11.80;;
18669;SDS011;9464;44.918;9.670;2023-02-18T02:55:25;12.33;;;8.33;;
18669;SDS011;9464;44.918;9.670;2023-02-18T02:57:54;11.83;;;6.60;;
18669;SDS011;9464;44.918;9.670;2023-02-18T03:00:31;8.93;;;6.40;;
18669;SDS011;9464;44.918;9.670;2023-02-18T03:03:11;8.93;;;6.70;;
18669;SDS011;9464;44.918;9.670;2023-02-18T03:05:49;10.03;;;6.10;;
18669;SDS011;9464;44.918;9.670;2023-02-18T03:08:24;6.10;;;4.67;;
18669;SDS011;9464;44.918;9.670;2023-02-18T03:10:57;8.33;;;4.80;;
18669;SDS011;9464;44.918;9.670;2023-02-18T03:13:32;8.20;;;5.87;;
18669;SDS011;9464;44.918;9.670;2023-02-18T03:16:05;12.70;;;6.80;;
18669;SDS011;9464;44.918;9.670;2023-02-18T03:18:39;11.13;;;6.97;;
18669;SDS011;9464;44.918;9.670;2023-02-18T03:21:09;10.23;;;7.00;;
18669;SDS011;9464;44.918;9.670;2023-02-18T03:23:41;11.07;;;7.57;;
18669;SDS011;9464;44.918;9.670;2023-02-18T03:26:11;12.73;;;8.20;;
18669;SDS011;9464;44.918;9.670;2023-02-18T03:28:41;15.27;;;8.50;;
18669;SDS011;9464;44.918;9.670;2023-02-18T03:31:11;12.50;;;8.27;;
18669;SDS011;9464;44.918;9.670;2023-02-18T03:33:42;14.23;;;8.90;;
18669;SDS011;9464;44.918;9.670;2023-02-18T03:36:13;14.23;;;9.47;;
18669;SDS011;9464;44.918;9.670;2023-02-18T03:38:43;14.50;;;9.93;;
18669;SDS011;9464;44.918;9.670;2023-02-18T03:41:12;14.43;;;9.70;;
18669;SDS011;9464;44.918;9.670;2023-02-18T03:43:47;16.47;;;10.80;;
18669;SDS011;9464;44.918;9.670;2023-02-18T03:46:16;13.40;;;10.13;;
18669;SDS011;9464;44.918;9.670;2023-02-18T03:48:44;15.90;;;10.10;;
18669;SDS011;9464;44.918;9.670;2023-02-18T03:51:14;17.57;;;10.77;;
18669;SDS011;9464;44.918;9.670;2023-02-18T03:53:42;18.43;;;11.27;;
18669;SDS011;9464;44.918;9.670;2023-02-18T03:56:11;18.33;;;11.73;;
18669;SDS011;9464;44.918;9.670;2023-02-18T03:58:39;17.40;;;10.97;;
18669;SDS011;9464;44.918;9.670;2023-02-18T04:01:08;18.03;;;9.77;;
18669;SDS011;9464;44.918;9.670;2023-02-18T04:03:36;16.40;;;8.80;;
18669;SDS011;9464;44.918;9.670;2023-02-18T04:06:05;11.73;;;7.57;;
18669;SDS011;9464;44.918;9.670;2023-02-18T04:08:35;8.10;;;6.20;;
18669;SDS011;9464;44.918;9.670;2023-02-18T04:11:04;9.30;;;6.00;;
18669;SDS011;9464;44.918;9.670;2023-02-18T04:13:32;8.60;;;5.80;;
18669;SDS011;9464;44.918;9.670;2023-02-18T04:16:01;11.43;;;7.67;;
18669;SDS011;9464;44.918;9.670;2023-02-18T04:18:29;14.73;;;7.73;;
18669;SDS011;9464;44.918;9.670;2023-02-18T04:20:58;12.73;;;8.30;;
18669;SDS011;9464;44.918;9.670;2023-02-18T04:23:26;14.47;;;9.00;;
18669;SDS011;9464;44.918;9.670;2023-02-18T04:25:56;15.47;;;9.03;;
18669;SDS011;9464;44.918;9.670;2023-02-18T04:28:25;11.80;;;7.57;;
18669;SDS011;9464;44.918;9.670;2023-02-18T04:30:53;13.33;;;7.90;;
18669;SDS011;9464;44.918;9.670;2023-02-18T04:33:22;17.00;;;10.50;;
18669;SDS011;9464;44.918;9.670;2023-02-18T04:35:50;15.17;;;10.17;;
18669;SDS011;9464;44.918;9.670;2023-02-18T04:38:19;15.17;;;10.50;;
18669;SDS011;9464;44.918;9.670;2023-02-18T04:40:47;15.13;;;10.23;;
18669;SDS011;9464;44.918;9.670;2023-02-18T04:43:17;16.83;;;10.03;;
18669;SDS011;9464;44.918;9.670;2023-02-18T04:45:45;17.60;;;10.17;;
18669;SDS011;9464;44.918;9.670;2023-02-18T04:48:14;15.80;;;10.43;;
18669;SDS011;9464;44.918;9.670;2023-02-18T04:50:43;18.33;;;11.60;;
18669;SDS011;9464;44.918;9.670;2023-02-18T04:53:11;16.57;;;10.53;;
18669;SDS011;9464;44.918;9.670;2023-02-18T04:55:40;15.10;;;10.53;;
18669;SDS011;9464;44.918;9.670;2023-02-18T04:58:08;16.90;;;9.70;;
18669;SDS011;9464;44.918;9.670;2023-02-18T05:00:38;15.13;;;9.60;;
18669;SDS011;9464;44.918;9.670;2023-02-18T05:03:07;14.47;;;9.83;;
18669;SDS011;9464;44.918;9.670;2023-02-18T05:05:35;15.80;;;9.10;;
18669;SDS011;9464;44.918;9.670;2023-02-18T05:08:04;11.70;;;7.80;;
18669;SDS011;9464;44.918;9.670;2023-02-18T05:10:32;10.43;;;7.13;;
18669;SDS011;9464;44.918;9.670;2023-02-18T05:13:01;7.93;;;5.83;;
18669;SDS011;9464;44.918;9.670;2023-02-18T05:15:29;8.47;;;6.07;;
18669;SDS011;9464;44.918;9.670;2023-02-18T05:17:59;11.50;;;5.83;;
18669;SDS011;9464;44.918;9.670;2023-02-18T05:20:28;7.83;;;4.93;;
18669;SDS011;9464;44.918;9.670;2023-02-18T05:22:56;8.23;;;4.63;;
18669;SDS011;9464;44.918;9.670;2023-02-18T05:25:25;5.63;;;4.13;;
18669;SDS011;9464;44.918;9.670;2023-02-18T05:27:53;4.63;;;3.40;;
18669;SDS011;9464;44.918;9.670;2023-02-18T05:30:22;8.53;;;3.33;;
18669;SDS011;9464;44.918;9.670;2023-02-18T05:32:50;5.70;;;3.10;;
18669;SDS011;9464;44.918;9.670;2023-02-18T05:35:20;4.87;;;2.97;;
18669;SDS011;9464;44.918;9.670;2023-02-18T05:37:49;4.73;;;3.10;;
18669;SDS011;9464;44.918;9.670;2023-02-18T05:40:17;9.13;;;3.50;;
18669;SDS011;9464;44.918;9.670;2023-02-18T05:42:46;5.50;;;3.27;;
18669;SDS011;9464;44.918;9.670;2023-02-18T05:45:14;5.13;;;3.43;;
18669;SDS011;9464;44.918;9.670;2023-02-18T05:47:43;4.93;;;3.60;;
18669;SDS011;9464;44.918;9.670;2023-02-18T05:50:11;5.67;;;3.73;;
18669;SDS011;9464;44.918;9.670;2023-02-18T05:52:41;5.17;;;4.23;;
18669;SDS011;9464;44.918;9.670;2023-02-18T05:55:10;7.00;;;4.03;;
18669;SDS011;9464;44.918;9.670;2023-02-18T05:57:38;8.03;;;4.33;;
18669;SDS011;9464;44.918;9.670;2023-02-18T06:00:07;6.20;;;3.83;;
18669;SDS011;9464;44.918;9.670;2023-02-18T06:02:36;5.13;;;3.77;;
18669;SDS011;9464;44.918;9.670;2023-02-18T06:05:05;8.43;;;4.67;;
18669;SDS011;9464;44.918;9.670;2023-02-18T06:07:34;12.63;;;7.23;;
18669;SDS011;9464;44.918;9.670;2023-02-18T06:10:04;7.70;;;5.27;;
18669;SDS011;9464;44.918;9.670;2023-02-18T06:12:33;6.33;;;4.47;;
18669;SDS011;9464;44.918;9.670;2023-02-18T06:15:01;7.17;;;4.40;;
18669;SDS011;9464;44.918;9.670;2023-02-18T06:17:30;9.57;;;4.73;;
18669;SDS011;9464;44.918;9.670;2023-02-18T06:19:59;6.33;;;4.27;;
18669;SDS011;9464;44.918;9.670;2023-02-18T06:22:27;67.43;;;30.40;;
18669;SDS011;9464;44.918;9.670;2023-02-18T06:24:56;15.67;;;10.13;;
18669;SDS011;9464;44.918;9.670;2023-02-18T06:27:25;6.87;;;5.07;;
18669;SDS011;9464;44.918;9.670;2023-02-18T06:29:54;6.80;;;4.60;;
18669;SDS011;9464;44.918;9.670;2023-02-18T06:32:22;5.07;;;3.87;;
18669;SDS011;9464;44.918;9.670;2023-02-18T06:34:51;5.43;;;4.37;;
18669;SDS011;9464;44.918;9.670;2023-02-18T06:37:20;5.90;;;4.37;;
18669;SDS011;9464;44.918;9.670;2023-02-18T06:39:48;7.90;;;5.10;;
18669;SDS011;9464;44.918;9.670;2023-02-18T06:42:16;6.63;;;4.93;;
18669;SDS011;9464;44.918;9.670;2023-02-18T06:44:46;5.87;;;4.03;;
18669;SDS011;9464;44.918;9.670;2023-02-18T06:47:15;8.03;;;3.77;;
18669;SDS011;9464;44.918;9.670;2023-02-18T06:49:43;7.13;;;4.73;;
18669;SDS011;9464;44.918;9.670;2023-02-18T06:52:13;7.17;;;4.03;;
18669;SDS011;9464;44.918;9.670;2023-02-18T06:54:41;4.30;;;3.87;;
18669;SDS011;9464;44.918;9.670;2023-02-18T06:57:10;7.17;;;4.27;;
18669;SDS011;9464;44.918;9.670;2023-02-18T06:59:38;8.93;;;4.33;;
18669;SDS011;9464;44.918;9.670;2023-02-18T07:02:09;6.37;;;4.37;;
18669;SDS011;9464;44.918;9.670;2023-02-18T07:04:38;6.77;;;4.77;;
18669;SDS011;9464;44.918;9.670;2023-02-18T07:07:07;8.10;;;4.97;;
18669;SDS011;9464;44.918;9.670;2023-02-18T07:09:35;7.80;;;5.10;;
18669;SDS011;9464;44.918;9.670;2023-02-18T07:12:04;8.23;;;5.23;;
18669;SDS011;9464;44.918;9.670;2023-02-18T07:14:32;5.50;;;4.43;;
18669;SDS011;9464;44.918;9.670;2023-02-18T07:17:01;6.93;;;5.00;;
18669;SDS011;9464;44.918;9.670;2023-02-18T07:19:32;6.27;;;4.23;;
18669;SDS011;9464;44.918;9.670;2023-02-18T07:22:00;6.90;;;3.73;;
18669;SDS011;9464;44.918;9.670;2023-02-18T07:24:29;6.90;;;3.53;;
18669;SDS011;9464;44.918;9.670;2023-02-18T07:26:57;6.60;;;3.90;;
18669;SDS011;9464;44.918;9.670;2023-02-18T07:29:26;7.83;;;4.07;;
18669;SDS011;9464;44.918;9.670;2023-02-18T07:31:54;8.67;;;4.40;;
18669;SDS011;9464;44.918;9.670;2023-02-18T07:34:23;5.80;;;3.77;;
18669;SDS011;9464;44.918;9.670;2023-02-18T07:36:53;7.23;;;4.23;;
18669;SDS011;9464;44.918;9.670;2023-02-18T07:39:21;6.80;;;3.90;;
18669;SDS011;9464;44.918;9.670;2023-02-18T07:41:50;5.60;;;4.30;;
18669;SDS011;9464;44.918;9.670;2023-02-18T07:44:18;8.60;;;4.00;;
18669;SDS011;9464;44.918;9.670;2023-02-18T07:46:46;7.67;;;4.37;;
18669;SDS011;9464;44.918;9.670;2023-02-18T07:49:15;7.13;;;4.50;;
18669;SDS011;9464;44.918;9.670;2023-02-18T07:51:45;8.37;;;4.80;;
18669;SDS011;9464;44.918;9.670;2023-02-18T07:54:15;8.27;;;5.03;;
18669;SDS011;9464;44.918;9.670;2023-02-18T07:56:44;10.40;;;5.47;;
18669;SDS011;9464;44.918;9.670;2023-02-18T07:59:13;11.73;;;5.67;;
18669;SDS011;9464;44.918;9.670;2023-02-18T08:01:41;11.97;;;5.33;;
18669;SDS011;9464;44.918;9.670;2023-02-18T08:04:10;11.70;;;5.20;;
18669;SDS011;9464;44.918;9.670;2023-02-18T08:06:41;7.43;;;4.50;;
18669;SDS011;9464;44.918;9.670;2023-02-18T08:09:11;7.77;;;4.17;;
18669;SDS011;9464;44.918;9.670;2023-02-18T08:11:41;13.27;;;5.07;;
18669;SDS011;9464;44.918;9.670;2023-02-18T08:14:10;10.50;;;6.30;;
18669;SDS011;9464;44.918;9.670;2023-02-18T08:16:38;9.37;;;5.50;;
18669;SDS011;9464;44.918;9.670;2023-02-18T08:19:07;9.33;;;6.63;;
18669;SDS011;9464;44.918;9.670;2023-02-18T08:21:35;8.83;;;5.87;;
18669;SDS011;9464;44.918;9.670;2023-02-18T08:24:04;7.93;;;5.70;;
18669;SDS011;9464;44.918;9.670;2023-02-18T08:26:33;13.20;;;7.83;;
18669;SDS011;9464;44.918;9.670;2023-02-18T08:29:03;10.13;;;6.87;;
18669;SDS011;9464;44.918;9.670;2023-02-18T08:31:32;12.17;;;7.23;;
18669;SDS011;9464;44.918;9.670;2023-02-18T08:34:01;15.00;;;7.53;;
18669;SDS011;9464;44.918;9.670;2023-02-18T08:36:30;12.70;;;6.50;;
18669;SDS011;9464;44.918;9.670;2023-02-18T08:38:58;8.80;;;5.57;;
18669;SDS011;9464;44.918;9.670;2023-02-18T08:41:27;20.47;;;9.73;;
18669;SDS011;9464;44.918;9.670;2023-02-18T08:43:55;14.53;;;9.07;;
18669;SDS011;9464;44.918;9.670;2023-02-18T08:46:25;41.53;;;15.03;;
18669;SDS011;9464;44.918;9.670;2023-02-18T08:49:01;28.80;;;12.97;;
18669;SDS011;9464;44.918;9.670;2023-02-18T08:51:30;20.53;;;11.00;;
18669;SDS011;9464;44.918;9.670;2023-02-18T08:53:58;29.87;;;13.10;;
18669;SDS011;9464;44.918;9.670;2023-02-18T08:56:27;26.37;;;12.50;;
18669;SDS011;9464;44.918;9.670;2023-02-18T08:58:57;14.87;;;10.03;;
18669;SDS011;9464;44.918;9.670;2023-02-18T09:01:26;41.97;;;16.83;;
18669;SDS011;9464;44.918;9.670;2023-02-18T09:03:55;18.17;;;11.57;;
18669;SDS011;9464;44.918;9.670;2023-02-18T09:06:24;33.27;;;14.70;;
18669;SDS011;9464;44.918;9.670;2023-02-18T09:08:52;44.67;;;17.53;;
18669;SDS011;9464;44.918;9.670;2023-02-18T09:11:21;27.10;;;13.20;;
18669;SDS011;9464;44.918;9.670;2023-02-18T09:13:49;22.97;;;11.83;;
18669;SDS011;9464;44.918;9.670;2023-02-18T09:16:18;30.47;;;13.23;;
18669;SDS011;9464;44.918;9.670;2023-02-18T09:18:48;19.13;;;9.87;;
18669;SDS011;9464;44.918;9.670;2023-02-18T09:21:16;25.37;;;12.83;;
18669;SDS011;9464;44.918;9.670;2023-02-18T09:23:46;19.93;;;11.10;;
18669;SDS011;9464;44.918;9.670;2023-02-18T09:26:15;15.13;;;9.97;;
18669;SDS011;9464;44.918;9.670;2023-02-18T09:28:44;23.33;;;11.80;;
18669;SDS011;9464;44.918;9.670;2023-02-18T09:31:16;24.47;;;11.47;;
18669;SDS011;9464;44.918;9.670;2023-02-18T09:33:45;14.43;;;9.60;;
18669;SDS011;9464;44.918;9.670;2023-02-18T09:36:15;64.77;;;19.40;;
18669;SDS011;9464;44.918;9.670;2023-02-18T09:38:44;251.00;;;60.67;;
18669;SDS011;9464;44.918;9.670;2023-02-18T09:41:14;100.67;;;32.50;;
18669;SDS011;9464;44.918;9.670;2023-02-18T09:43:47;18.33;;;12.13;;
18669;SDS011;9464;44.918;9.670;2023-02-18T09:46:18;15.67;;;9.33;;
18669;SDS011;9464;44.918;9.670;2023-02-18T09:48:47;14.97;;;9.07;;
18669;SDS011;9464;44.918;9.670;2023-02-18T09:51:17;17.27;;;11.33;;
18669;SDS011;9464;44.918;9.670;2023-02-18T09:53:46;14.97;;;10.17;;
18669;SDS011;9464;44.918;9.670;2023-02-18T09:56:16;14.77;;;9.70;;
18669;SDS011;9464;44.918;9.670;2023-02-18T09:58:47;15.80;;;9.07;;
18669;SDS011;9464;44.918;9.670;2023-02-18T10:01:17;17.33;;;8.33;;
18669;SDS011;9464;44.918;9.670;2023-02-18T10:03:48;11.90;;;8.53;;
18669;SDS011;9464;44.918;9.670;2023-02-18T10:06:21;12.87;;;8.03;;
18669;SDS011;9464;44.918;9.670;2023-02-18T10:08:51;11.93;;;7.90;;
18669;SDS011;9464;44.918;9.670;2023-02-18T10:11:22;13.60;;;7.47;;
18669;SDS011;9464;44.918;9.670;2023-02-18T10:13:51;15.80;;;8.47;;
18669;SDS011;9464;44.918;9.670;2023-02-18T10:16:21;13.30;;;8.43;;
18669;SDS011;9464;44.918;9.670;2023-02-18T10:18:52;16.10;;;8.27;;
18669;SDS011;9464;44.918;9.670;2023-02-18T10:21:23;17.40;;;9.30;;
18669;SDS011;9464;44.918;9.670;2023-02-18T10:23:55;13.93;;;9.30;;
18669;SDS011;9464;44.918;9.670;2023-02-18T10:26:26;11.77;;;8.57;;
18669;SDS011;9464;44.918;9.670;2023-02-18T10:28:56;15.73;;;9.23;;
18669;SDS011;9464;44.918;9.670;2023-02-18T10:31:27;11.80;;;8.57;;
18669;SDS011;9464;44.918;9.670;2023-02-18T10:33:58;13.30;;;8.43;;
18669;SDS011;9464;44.918;9.670;2023-02-18T10:36:30;12.53;;;8.50;;
18669;SDS011;9464;44.918;9.670;2023-02-18T10:41:44;14.20;;;9.83;;
18669;SDS011;9464;44.918;9.670;2023-02-18T10:44:16;13.87;;;8.60;;
18669;SDS011;9464;44.918;9.670;2023-02-18T10:46:53;13.33;;;9.33;;
18669;SDS011;9464;44.918;9.670;2023-02-18T10:49:33;17.13;;;10.77;;
18669;SDS011;9464;44.918;9.670;2023-02-18T10:52:12;15.93;;;9.37;;
18669;SDS011;9464;44.918;9.670;2023-02-18T10:54:47;15.23;;;8.60;;
18669;SDS011;9464;44.918;9.670;2023-02-18T10:57:16;14.17;;;8.80;;
18669;SDS011;9464;44.918;9.670;2023-02-18T10:59:53;14.97;;;9.00;;
18669;SDS011;9464;44.918;9.670;2023-02-18T11:02:23;13.50;;;8.67;;
18669;SDS011;9464;44.918;9.670;2023-02-18T11:04:52;14.47;;;9.20;;
18669;SDS011;9464;44.918;9.670;2023-02-18T11:07:22;13.37;;;8.40;;
18669;SDS011;9464;44.918;9.670;2023-02-18T11:09:53;13.57;;;8.33;;
18669;SDS011;9464;44.918;9.670;2023-02-18T11:12:23;13.47;;;8.20;;
18669;SDS011;9464;44.918;9.670;2023-02-18T11:15:02;11.57;;;8.97;;
18669;SDS011;9464;44.918;9.670;2023-02-18T11:17:32;13.53;;;8.53;;
18669;SDS011;9464;44.918;9.670;2023-02-18T11:20:04;18.13;;;9.10;;
18669;SDS011;9464;44.918;9.670;2023-02-18T11:22:49;11.77;;;8.47;;
18669;SDS011;9464;44.918;9.670;2023-02-18T11:25:18;19.20;;;9.57;;
18669;SDS011;9464;44.918;9.670;2023-02-18T11:27:48;12.60;;;8.80;;
18669;SDS011;9464;44.918;9.670;2023-02-18T11:30:18;15.63;;;9.67;;
18669;SDS011;9464;44.918;9.670;2023-02-18T11:32:49;31.63;;;13.67;;
18669;SDS011;9464;44.918;9.670;2023-02-18T11:35:20;16.93;;;10.47;;
18669;SDS011;9464;44.918;9.670;2023-02-18T11:37:51;15.87;;;9.07;;
18669;SDS011;9464;44.918;9.670;2023-02-18T11:40:20;15.00;;;10.10;;
18669;SDS011;9464;44.918;9.670;2023-02-18T11:42:49;16.00;;;10.23;;
18669;SDS011;9464;44.918;9.670;2023-02-18T11:45:25;17.33;;;9.97;;
18669;SDS011;9464;44.918;9.670;2023-02-18T11:47:57;14.23;;;9.97;;
18669;SDS011;9464;44.918;9.670;2023-02-18T11:50:29;17.37;;;9.93;;
18669;SDS011;9464;44.918;9.670;2023-02-18T11:52:59;19.63;;;11.20;;
18669;SDS011;9464;44.918;9.670;2023-02-18T11:55:28;18.70;;;10.13;;
18669;SDS011;9464;44.918;9.670;2023-02-18T11:57:58;14.90;;;9.70;;
18669;SDS011;9464;44.918;9.670;2023-02-18T12:00:35;15.43;;;9.20;;
18669;SDS011;9464;44.918;9.670;2023-02-18T12:03:06;14.80;;;9.73;;
18669;SDS011;9464;44.918;9.670;2023-02-18T12:05:36;13.07;;;9.83;;
18669;SDS011;9464;44.918;9.670;2023-02-18T12:08:09;19.57;;;10.53;;
18669;SDS011;9464;44.918;9.670;2023-02-18T12:10:41;14.90;;;10.03;;
18669;SDS011;9464;44.918;9.670;2023-02-18T12:13:15;22.63;;;10.10;;
18669;SDS011;9464;44.918;9.670;2023-02-18T12:15:47;16.87;;;10.30;;
18669;SDS011;9464;44.918;9.670;2023-02-18T12:18:23;15.33;;;9.80;;
18669;SDS011;9464;44.918;9.670;2023-02-18T12:20:59;14.80;;;9.77;;
18669;SDS011;9464;44.918;9.670;2023-02-18T12:23:33;17.40;;;9.77;;
18669;SDS011;9464;44.918;9.670;2023-02-18T12:26:05;17.93;;;9.53;;
18669;SDS011;9464;44.918;9.670;2023-02-18T12:28:43;19.37;;;9.93;;
18669;SDS011;9464;44.918;9.670;2023-02-18T12:31:26;14.07;;;9.17;;
18669;SDS011;9464;44.918;9.670;2023-02-18T12:34:02;14.77;;;9.77;;
18669;SDS011;9464;44.918;9.670;2023-02-18T12:36:34;19.43;;;11.17;;
18669;SDS011;9464;44.918;9.670;2023-02-18T12:39:12;15.80;;;11.13;;
18669;SDS011;9464;44.918;9.670;2023-02-18T12:41:50;13.73;;;9.00;;
18669;SDS011;9464;44.918;9.670;2023-02-18T12:44:25;14.83;;;9.43;;
18669;SDS011;9464;44.918;9.670;2023-02-18T12:47:01;15.83;;;9.93;;
18669;SDS011;9464;44.918;9.670;2023-02-18T12:49:42;15.60;;;9.00;;
18669;SDS011;9464;44.918;9.670;2023-02-18T12:52:17;14.07;;;9.33;;
18669;SDS011;9464;44.918;9.670;2023-02-18T12:54:59;14.17;;;8.60;;
18669;SDS011;9464;44.918;9.670;2023-02-18T12:57:33;14.50;;;9.30;;
18669;SDS011;9464;44.918;9.670;2023-02-18T13:05:44;18.03;;;10.93;;
18669;SDS011;9464;44.918;9.670;2023-02-18T13:08:22;13.50;;;8.87;;
18669;SDS011;9464;44.918;9.670;2023-02-18T13:10:58;12.47;;;8.93;;
18669;SDS011;9464;44.918;9.670;2023-02-18T13:13:29;12.43;;;8.63;;
18669;SDS011;9464;44.918;9.670;2023-02-18T13:15:59;13.67;;;8.70;;
18669;SDS011;9464;44.918;9.670;2023-02-18T13:18:29;13.47;;;8.83;;
18669;SDS011;9464;44.918;9.670;2023-02-18T13:21:00;15.13;;;9.70;;
18669;SDS011;9464;44.918;9.670;2023-02-18T13:23:32;15.43;;;10.30;;
18669;SDS011;9464;44.918;9.670;2023-02-18T13:26:03;15.53;;;10.30;;
18669;SDS011;9464;44.918;9.670;2023-02-18T13:28:34;14.17;;;8.90;;
18669;SDS011;9464;44.918;9.670;2023-02-18T13:31:11;17.40;;;10.60;;
18669;SDS011;9464;44.918;9.670;2023-02-18T13:33:43;16.93;;;10.53;;
18669;SDS011;9464;44.918;9.670;2023-02-18T13:36:17;16.17;;;9.70;;
18669;SDS011;9464;44.918;9.670;2023-02-18T13:38:53;14.90;;;9.40;;
18669;SDS011;9464;44.918;9.670;2023-02-18T13:41:24;18.77;;;11.37;;
18669;SDS011;9464;44.918;9.670;2023-02-18T13:43:53;15.40;;;10.43;;
18669;SDS011;9464;44.918;9.670;2023-02-18T13:46:21;13.10;;;8.83;;
18669;SDS011;9464;44.918;9.670;2023-02-18T13:48:51;15.53;;;9.33;;
18669;SDS011;9464;44.918;9.670;2023-02-18T13:51:29;13.50;;;8.73;;
18669;SDS011;9464;44.918;9.670;2023-02-18T13:54:00;13.30;;;9.37;;
18669;SDS011;9464;44.918;9.670;2023-02-18T13:56:30;12.50;;;8.60;;
18669;SDS011;9464;44.918;9.670;2023-02-18T13:59:00;32.70;;;13.73;;
18669;SDS011;9464;44.918;9.670;2023-02-18T14:01:36;14.27;;;9.63;;
18669;SDS011;9464;44.918;9.670;2023-02-18T14:09:35;12.97;;;9.13;;
18669;SDS011;9464;44.918;9.670;2023-02-18T14:12:21;39.73;;;17.77;;
18669;SDS011;9464;44.918;9.670;2023-02-18T14:14:51;15.43;;;9.47;;
18669;SDS011;9464;44.918;9.670;2023-02-18T14:17:27;23.83;;;11.90;;
18669;SDS011;9464;44.918;9.670;2023-02-18T14:22:45;27.93;;;12.03;;
18669;SDS011;9464;44.918;9.670;2023-02-18T14:25:15;16.57;;;10.40;;
18669;SDS011;9464;44.918;9.670;2023-02-18T14:27:46;21.33;;;12.10;;
18669;SDS011;9464;44.918;9.670;2023-02-18T14:30:17;17.27;;;10.80;;
18669;SDS011;9464;44.918;9.670;2023-02-18T14:32:48;16.07;;;9.33;;
18669;SDS011;9464;44.918;9.670;2023-02-18T14:35:19;13.77;;;8.83;;
18669;SDS011;9464;44.918;9.670;2023-02-18T14:38:00;14.80;;;9.80;;
18669;SDS011;9464;44.918;9.670;2023-02-18T14:40:36;12.53;;;8.93;;
18669;SDS011;9464;44.918;9.670;2023-02-18T14:43:10;17.20;;;10.57;;
18669;SDS011;9464;44.918;9.670;2023-02-18T14:45:48;14.30;;;9.97;;
18669;SDS011;9464;44.918;9.670;2023-02-18T14:48:25;14.80;;;9.63;;
18669;SDS011;9464;44.918;9.670;2023-02-18T14:50:55;15.93;;;9.50;;
18669;SDS011;9464;44.918;9.670;2023-02-18T14:53:25;14.27;;;9.53;;
18669;SDS011;9464;44.918;9.670;2023-02-18T14:55:57;14.63;;;9.63;;
18669;SDS011;9464;44.918;9.670;2023-02-18T14:58:29;14.10;;;8.67;;
18669;SDS011;9464;44.918;9.670;2023-02-18T15:01:04;14.70;;;9.30;;
18669;SDS011;9464;44.918;9.670;2023-02-18T15:03:33;15.33;;;9.63;;
18669;SDS011;9464;44.918;9.670;2023-02-18T15:06:01;13.80;;;9.60;;
18669;SDS011;9464;44.918;9.670;2023-02-18T15:08:35;15.67;;;9.20;;
18669;SDS011;9464;44.918;9.670;2023-02-18T15:11:04;10.63;;;7.73;;
18669;SDS011;9464;44.918;9.670;2023-02-18T15:13:35;14.17;;;8.80;;
18669;SDS011;9464;44.918;9.670;2023-02-18T15:16:11;14.10;;;9.53;;
18669;SDS011;9464;44.918;9.670;2023-02-18T15:18:42;14.33;;;9.90;;
18669;SDS011;9464;44.918;9.670;2023-02-18T15:21:15;15.83;;;10.37;;
18669;SDS011;9464;44.918;9.670;2023-02-18T15:23:45;15.63;;;9.20;;
18669;SDS011;9464;44.918;9.670;2023-02-18T15:26:13;15.43;;;9.83;;
18669;SDS011;9464;44.918;9.670;2023-02-18T15:28:52;15.23;;;9.93;;